Time;durP1;ratioP1;P1;durP2;ratioP2;P2;SDS_P1;SDS_P2;PMS_P1;PMS_P2;Temp;Humidity;BMP_temperature;BMP_pressure;BME280_temperature;BME280_humidity;BME280_pressure;Samples;Min_cycle;Max_cycle;Signal;HPM_P1;HPM_P2
2023/08/19 00:01:59;;;;;;;;;;;;;;;26.00;54.70;101156.72;4824555;29;113737;-75
2023/08/19 00:04:26;;;;;;;;;;;;;;;25.98;54.43;101150.59;4823638;29;124912;-75
2023/08/19 00:06:53;;;;;;;;;;;;;;;25.95;54.32;101155.50;4825993;29;123985;-75
2023/08/19 00:09:21;;;;;;;;;;;;;;;25.93;54.67;101152.94;4834839;29;114978;-75
2023/08/19 00:11:48;;;;;;;;;;;;;;;25.91;54.42;101151.38;4846805;29;113172;-76
2023/08/19 00:14:15;;;;;;;;;;;;;;;25.89;54.71;101150.69;4835292;29;125403;-75
2023/08/19 00:16:43;;;;;;;;;;;;;;;25.86;54.84;101159.16;4821177;29;124086;-76
2023/08/19 00:19:11;;;;;;;;;;;;;;;25.84;54.66;101151.16;4828198;29;115662;-75
2023/08/19 00:21:38;;;;;;;;;;;;;;;25.81;54.98;101155.06;4851278;29;115308;-75
2023/08/19 00:24:05;;;;;;;;;;;;;;;25.79;54.58;101146.25;4821322;29;125071;-75
2023/08/19 00:26:32;;;;;;;;;;;;;;;25.77;55.02;101142.84;4833972;29;124564;-75
2023/08/19 00:28:59;;;;;;;;;;;;;;;25.75;54.65;101142.16;4829392;29;114090;-76
2023/08/19 00:31:27;;;;;;;;;;;;;;;25.74;54.69;101135.00;4831903;29;113345;-75
2023/08/19 00:33:54;;;;;;;;;;;;;;;25.72;54.95;101139.75;4835659;29;124327;-75
2023/08/19 00:36:21;;;;;;;;;;;;;;;25.72;55.20;101138.91;4816884;29;123311;-75
2023/08/19 00:38:56;;;;;;;;;;;;;;;25.69;54.89;101145.50;4829910;29;113996;-76
2023/08/19 00:41:23;;;;;;;;;;;;;;;25.67;54.85;101142.09;4844378;29;113333;-76
2023/08/19 00:43:50;;;;;;;;;;;;;;;25.66;54.75;101145.84;4850543;29;123431;-76
2023/08/19 00:46:17;;;;;;;;;;;;;;;25.64;55.18;101142.44;4842229;28;123357;-76
2023/08/19 00:48:44;;;;;;;;;;;;;;;25.62;54.80;101144.47;4830212;29;114960;-75
2023/08/19 00:51:11;;;;;;;;;;;;;;;25.60;54.85;101146.47;4849314;29;113453;-75
2023/08/19 00:53:38;;;;;;;;;;;;;;;25.58;54.90;101148.47;4827358;29;124318;-75
2023/08/19 00:56:05;;;;;;;;;;;;;;;25.56;55.21;101139.66;4826766;29;123081;-75
2023/08/19 00:58:32;;;;;;;;;;;;;;;25.56;54.97;101139.66;4828282;29;114440;-75
2023/08/19 01:00:59;;;;;;;;;;;;;;;25.55;55.04;101144.22;4833799;29;113328;-76
2023/08/19 01:03:26;;;;;;;;;;;;;;;25.53;55.23;101142.69;4845255;29;123874;-75
2023/08/19 01:05:56;;;;;;;;;;;;;;;25.52;55.30;101143.69;4849782;29;123998;-76
2023/08/19 01:08:26;;;;;;;;;;;;;;;25.51;55.30;101136.59;4832883;29;114662;-76
2023/08/19 01:11:10;;;;;;;;;;;;;;;25.51;55.49;101137.44;4842295;29;114449;-76
2023/08/19 01:13:41;;;;;;;;;;;;;;;25.50;55.40;101134.88;4823638;29;124016;-76
2023/08/19 01:16:13;;;;;;;;;;;;;;;25.49;55.08;101134.03;4834663;29;123492;-75
2023/08/19 01:18:40;;;;;;;;;;;;;;;25.49;55.19;101133.19;4847744;29;115380;-75
2023/08/19 01:21:08;;;;;;;;;;;;;;;25.48;55.57;101131.47;4849675;29;113147;-75
2023/08/19 01:23:43;;;;;;;;;;;;;;;25.48;55.20;101131.47;4831500;29;124403;-76
2023/08/19 01:26:10;;;;;;;;;;;;;;;25.45;55.44;101128.06;4830777;29;124217;-75
2023/08/19 01:28:37;;;;;;;;;;;;;;;25.43;55.18;101135.53;4834420;29;114441;-76
2023/08/19 01:31:04;;;;;;;;;;;;;;;25.42;55.25;101133.81;4836421;29;114089;-76
2023/08/19 01:33:31;;;;;;;;;;;;;;;25.40;55.60;101132.28;4845006;29;123289;-75
2023/08/19 01:36:10;;;;;;;;;;;;;;;25.38;55.32;101121.56;4846100;29;123360;-76
2023/08/19 01:38:58;;;;;;;;;;;;;;;25.36;55.40;101129.03;4827225;29;114064;-75
2023/08/19 01:41:28;;;;;;;;;;;;;;;25.35;55.47;101124.59;4850758;29;113218;-76
2023/08/19 01:43:59;;;;;;;;;;;;;;;25.35;55.22;101116.47;4836627;29;123469;-76
2023/08/19 01:46:27;;;;;;;;;;;;;;;25.33;55.39;101123.91;4847189;29;123409;-76
2023/08/19 01:48:54;;;;;;;;;;;;;;;25.33;55.56;101123.06;4822224;29;114944;-76
2023/08/19 01:51:24;;;;;;;;;;;;;;;25.33;55.41;101113.06;4828075;29;113441;-76
2023/08/19 01:53:51;;;;;;;;;;;;;;;25.33;55.56;101113.06;4822564;29;125206;-76
2023/08/19 01:56:17;;;;;;;;;;;;;;;25.31;55.62;101109.66;4829143;29;124188;-76
2023/08/19 01:58:44;;;;;;;;;;;;;;;25.31;55.64;101106.09;4832565;29;114324;-75
2023/08/19 02:01:13;;;;;;;;;;;;;;;25.31;55.51;101096.09;4831856;29;113984;-76
2023/08/19 02:03:40;;;;;;;;;;;;;;;25.30;55.52;101097.13;4831790;29;124304;-75
2023/08/19 02:06:07;;;;;;;;;;;;;;;25.29;55.42;101095.41;4831329;29;124713;-76
2023/08/19 02:08:34;;;;;;;;;;;;;;;25.28;55.50;101093.72;4813483;29;113775;-75
2023/08/19 02:11:02;;;;;;;;;;;;;;;25.26;55.52;101090.34;4834873;29;113742;-75
2023/08/19 02:13:29;;;;;;;;;;;;;;;25.27;55.49;101097.44;4828412;29;123393;-75
2023/08/19 02:15:56;;;;;;;;;;;;;;;25.28;55.65;101101.88;4833510;29;123419;-75
2023/08/19 02:18:23;;;;;;;;;;;;;;;25.28;55.69;101093.72;4834306;29;113221;-76
2023/08/19 02:20:50;;;;;;;;;;;;;;;25.30;55.87;101097.13;4830139;29;114917;-76
2023/08/19 02:23:17;;;;;;;;;;;;;;;25.30;56.01;101089.00;4829793;29;124794;-75
2023/08/19 02:25:44;;;;;;;;;;;;;;;25.33;55.76;101088.66;4817273;29;124730;-75
2023/08/19 02:28:11;;;;;;;;;;;;;;;25.35;55.98;101083.09;4816010;29;114647;-75
2023/08/19 02:30:40;;;;;;;;;;;;;;;25.37;55.97;101086.47;4825672;29;112870;-76
2023/08/19 02:33:07;;;;;;;;;;;;;;;25.39;55.77;101079.91;4832708;29;123528;-76
2023/08/19 02:35:34;;;;;;;;;;;;;;;25.41;55.95;101080.59;4828408;28;123911;-76
2023/08/19 02:38:01;;;;;;;;;;;;;;;25.44;55.73;101072.13;4846210;29;113985;-76
2023/08/19 02:40:30;;;;;;;;;;;;;;;25.45;56.14;101084.69;4830482;29;113688;-76
2023/08/19 02:42:57;;;;;;;;;;;;;;;25.48;55.84;101082.66;4840459;29;123154;-76
2023/08/19 02:45:24;;;;;;;;;;;;;;;25.49;55.89;101085.22;4824289;29;123010;-76
2023/08/19 02:47:51;;;;;;;;;;;;;;;25.52;56.00;101078.59;4829383;29;115951;-75
2023/08/19 02:50:18;;;;;;;;;;;;;;;25.54;55.99;101082.00;4829461;29;113127;-75
2023/08/19 02:52:45;;;;;;;;;;;;;;;25.55;56.13;101078.28;4818416;29;123055;-75
2023/08/19 02:55:12;;;;;;;;;;;;;;;25.56;55.92;101079.97;4828462;29;124309;-75
2023/08/19 02:57:39;;;;;;;;;;;;;;;25.58;55.84;101072.53;4826251;29;114274;-75
2023/08/19 03:00:07;;;;;;;;;;;;;;;25.59;55.95;101075.09;4824465;29;112869;-76
2023/08/19 03:02:34;;;;;;;;;;;;;;;25.61;55.88;101073.06;4831778;29;123516;-75
2023/08/19 03:05:01;;;;;;;;;;;;;;;25.61;56.24;101073.06;4832838;29;123087;-75
2023/08/19 03:07:28;;;;;;;;;;;;;;;25.63;55.99;101064.75;4820894;29;114064;-75
2023/08/19 03:09:55;;;;;;;;;;;;;;;25.64;56.00;101067.31;4825923;29;113686;-75
2023/08/19 03:12:22;;;;;;;;;;;;;;;25.66;56.33;101069.88;4824631;29;125227;-76
2023/08/19 03:14:49;;;;;;;;;;;;;;;25.67;56.25;101063.41;4848415;29;123857;-75
2023/08/19 03:17:19;;;;;;;;;;;;;;;25.67;56.08;101055.28;4825175;29;114089;-76
2023/08/19 03:19:46;;;;;;;;;;;;;;;25.67;56.07;101049.84;4831004;29;113101;-75
2023/08/19 03:22:13;;;;;;;;;;;;;;;25.69;55.99;101060.53;4831157;29;123857;-75
2023/08/19 03:24:40;;;;;;;;;;;;;;;25.69;56.23;101053.25;4834366;29;124301;-76
2023/08/19 03:27:09;;;;;;;;;;;;;;;25.69;56.27;101058.69;4823630;29;109707;-75
2023/08/19 03:29:37;;;;;;;;;;;;;;;25.69;55.95;101058.69;4844913;29;113783;-75
2023/08/19 03:32:04;;;;;;;;;;;;;;;25.72;56.37;101058.38;4829599;29;123016;-75
2023/08/19 03:34:31;;;;;;;;;;;;;;;25.74;56.03;101056.34;4827215;29;124340;-75
2023/08/19 03:36:58;;;;;;;;;;;;;;;25.76;56.35;101054.31;4826216;29;115751;-76
2023/08/19 03:39:25;;;;;;;;;;;;;;;25.78;56.09;101063.13;4836679;29;114184;-75
2023/08/19 03:41:52;;;;;;;;;;;;;;;25.78;56.20;101063.13;4829482;29;124025;-75
2023/08/19 03:44:19;;;;;;;;;;;;;;;25.79;56.04;101054.00;4835639;29;123456;-75
2023/08/19 03:46:46;;;;;;;;;;;;;;;25.82;56.18;101052.81;4833533;29;115345;-75
2023/08/19 03:49:13;;;;;;;;;;;;;;;25.84;56.21;101051.63;4849963;29;113935;-75
2023/08/19 03:51:40;;;;;;;;;;;;;;;25.84;56.08;101057.06;4826441;29;124764;-75
2023/08/19 03:54:06;;;;;;;;;;;;;;;25.86;56.16;101058.75;4825944;29;123437;-76
2023/08/19 03:56:33;;;;;;;;;;;;;;;25.87;56.22;101060.47;4822433;29;113300;-75
2023/08/19 03:59:00;;;;;;;;;;;;;;;25.87;56.44;101061.31;4835732;29;112898;-75
2023/08/19 04:01:27;;;;;;;;;;;;;;;25.88;56.42;101051.28;4823997;29;124234;-75
2023/08/19 04:03:54;;;;;;;;;;;;;;;25.89;56.42;101058.44;4851478;28;123115;-75
2023/08/19 04:06:21;;;;;;;;;;;;;;;25.89;56.32;101061.16;4833546;29;114348;-75
2023/08/19 04:08:48;;;;;;;;;;;;;;;25.91;56.24;101056.41;4848302;29;114311;-76
2023/08/19 04:11:15;;;;;;;;;;;;;;;25.90;56.37;101054.69;4818639;29;123600;-75
2023/08/19 04:13:42;;;;;;;;;;;;;;;25.89;56.45;101058.44;4831371;29;123077;-76
2023/08/19 04:16:10;;;;;;;;;;;;;;;25.88;56.45;101059.44;4830975;29;113678;-75
2023/08/19 04:18:37;;;;;;;;;;;;;;;25.89;56.30;101070.13;4850916;29;113849;-76
2023/08/19 04:21:04;;;;;;;;;;;;;;;25.89;56.18;101063.88;4834771;29;123933;-75
2023/08/19 04:23:32;;;;;;;;;;;;;;;25.90;56.38;101062.81;4848240;28;122533;-75
2023/08/19 04:25:59;;;;;;;;;;;;;;;25.91;56.46;101064.53;4844193;29;116677;-75
2023/08/19 04:28:27;;;;;;;;;;;;;;;25.92;56.09;101058.13;4833696;29;114125;-76
2023/08/19 04:31:01;;;;;;;;;;;;;;;25.93;56.54;101054.41;4826080;29;125395;-75
2023/08/19 04:33:28;;;;;;;;;;;;;;;25.93;56.53;101059.84;4830048;29;123392;-76
2023/08/19 04:35:56;;;;;;;;;;;;;;;25.93;56.29;101065.25;4822018;29;115032;-75
2023/08/19 04:38:22;;;;;;;;;;;;;;;25.95;56.59;101057.81;4834322;29;114381;-75
2023/08/19 04:40:50;;;;;;;;;;;;;;;25.95;56.47;101055.94;4827032;29;123861;-75
2023/08/19 04:43:21;;;;;;;;;;;;;;;25.95;56.38;101064.06;4832103;29;124342;-75
2023/08/19 04:45:49;;;;;;;;;;;;;;;25.97;56.33;101061.19;4832774;29;114398;-75
2023/08/19 04:48:16;;;;;;;;;;;;;;;25.97;56.62;101056.59;4842951;28;112996;-75
2023/08/19 04:50:43;;;;;;;;;;;;;;;25.99;56.65;101064.59;4849800;29;123509;-75
2023/08/19 04:53:11;;;;;;;;;;;;;;;25.99;56.44;101075.44;4831301;29;123723;-75
2023/08/19 04:55:38;;;;;;;;;;;;;;;26.00;56.67;101071.72;4848024;28;115148;-75
2023/08/19 04:58:04;;;;;;;;;;;;;;;26.02;56.60;101081.41;4849863;29;114733;-76
2023/08/19 05:00:32;;;;;;;;;;;;;;;26.03;56.44;101083.13;4829862;29;124922;-76
2023/08/19 05:02:59;;;;;;;;;;;;;;;26.04;56.27;101083.97;4835424;29;123957;-76
2023/08/19 05:05:26;;;;;;;;;;;;;;;26.04;56.54;101078.53;4833663;29;113639;-76
2023/08/19 05:07:53;;;;;;;;;;;;;;;26.04;56.60;101083.97;4829004;29;113177;-75
2023/08/19 05:10:20;;;;;;;;;;;;;;;26.03;56.23;101082.25;4815842;29;123366;-75
2023/08/19 05:12:48;;;;;;;;;;;;;;;26.03;56.38;101084.97;4848018;28;123817;-76
2023/08/19 05:15:15;;;;;;;;;;;;;;;26.03;56.34;101082.25;4826649;29;115609;-75
2023/08/19 05:17:42;;;;;;;;;;;;;;;26.04;56.54;101089.38;4828627;29;115495;-75
2023/08/19 05:20:09;;;;;;;;;;;;;;;26.05;56.37;101096.53;4833422;29;123875;-76
2023/08/19 05:22:36;;;;;;;;;;;;;;;26.04;56.50;101089.38;4836110;29;124771;-75
2023/08/19 05:25:05;;;;;;;;;;;;;;;26.07;56.55;101088.19;4830000;29;114170;-75
2023/08/19 05:27:32;;;;;;;;;;;;;;;26.08;56.66;101090.75;4829567;29;112754;-75
2023/08/19 05:29:59;;;;;;;;;;;;;;;26.07;56.48;101083.63;4834507;29;123947;-76
2023/08/19 05:32:26;;;;;;;;;;;;;;;26.08;56.52;101089.91;4835568;29;124264;-75
2023/08/19 05:34:53;;;;;;;;;;;;;;;26.07;56.55;101080.94;4832903;29;114057;-75
2023/08/19 05:37:20;;;;;;;;;;;;;;;26.08;56.50;101079.06;4834329;29;112793;-75
2023/08/19 05:39:47;;;;;;;;;;;;;;;26.08;56.49;101079.91;4831201;29;124304;-75
2023/08/19 05:42:14;;;;;;;;;;;;;;;26.09;56.66;101081.59;4826529;29;122779;-75
2023/08/19 05:44:41;;;;;;;;;;;;;;;26.10;56.46;101083.28;4818874;29;113959;-75
2023/08/19 05:47:09;;;;;;;;;;;;;;;26.11;56.73;101090.44;4835045;29;113865;-75
2023/08/19 05:49:36;;;;;;;;;;;;;;;26.14;56.56;101094.69;4829299;29;123955;-75
2023/08/19 05:52:03;;;;;;;;;;;;;;;26.17;56.76;101105.22;4830871;29;124080;-76
2023/08/19 05:54:30;;;;;;;;;;;;;;;26.19;56.67;101098.59;4825927;29;114602;-75
2023/08/19 05:56:57;;;;;;;;;;;;;;;26.22;56.43;101111.84;4835807;29;113686;-75
2023/08/19 05:59:24;;;;;;;;;;;;;;;26.25;56.39;101107.94;4835288;29;123786;-75
2023/08/19 06:01:51;;;;;;;;;;;;;;;26.27;56.87;101107.78;4832222;29;123792;-76
2023/08/19 06:04:19;;;;;;;;;;;;;;;26.29;56.42;101108.47;4825082;29;115343;-75
2023/08/19 06:06:46;;;;;;;;;;;;;;;26.31;56.52;101117.28;4824160;29;114463;-76
2023/08/19 06:09:13;;;;;;;;;;;;;;;26.31;56.83;101112.69;4827612;29;123324;-76
2023/08/19 06:11:47;;;;;;;;;;;;;;;26.34;56.52;101122.41;4834520;29;124311;-76
2023/08/19 06:14:14;;;;;;;;;;;;;;;26.35;56.57;101108.66;4831215;29;114611;-75
2023/08/19 06:16:42;;;;;;;;;;;;;;;26.39;56.74;101109.16;4830252;29;113422;-75
2023/08/19 06:19:09;;;;;;;;;;;;;;;26.41;56.70;101107.16;4831849;29;124927;-75
2023/08/19 06:21:39;;;;;;;;;;;;;;;26.43;56.43;101094.25;4832006;29;124115;-75
2023/08/19 06:24:06;;;;;;;;;;;;;;;26.45;56.87;101100.38;4835169;29;114998;-75
2023/08/19 06:26:33;;;;;;;;;;;;;;;26.48;56.61;101091.84;4848794;28;111726;-75
2023/08/19 06:29:00;;;;;;;;;;;;;;;26.53;56.56;101103.06;4818063;29;123848;-75
2023/08/19 06:31:27;;;;;;;;;;;;;;;26.57;56.67;101104.44;4827718;29;124652;-75
2023/08/19 06:33:54;;;;;;;;;;;;;;;26.60;56.53;101106.88;4833131;29;113440;-76
2023/08/19 06:36:28;;;;;;;;;;;;;;;26.64;56.58;101101.09;4831073;29;113317;-75
2023/08/19 06:39:11;;;;;;;;;;;;;;;26.66;56.86;101099.06;4829252;29;124278;-76
2023/08/19 06:41:39;;;;;;;;;;;;;;;26.69;56.50;101104.16;4832025;29;124101;-75
2023/08/19 06:44:07;;;;;;;;;;;;;;;26.72;56.81;101109.25;4841019;29;114058;-75
2023/08/19 06:46:34;;;;;;;;;;;;;;;26.76;56.84;101116.03;4839107;29;114036;-75
2023/08/19 06:49:01;;;;;;;;;;;;;;;26.78;56.56;101114.00;4833963;29;124037;-76
2023/08/19 06:51:28;;;;;;;;;;;;;;;26.82;56.69;101131.66;4844966;28;125307;-76
2023/08/19 06:53:56;;;;;;;;;;;;;;;26.82;56.87;101120.78;4832718;29;116222;-77
2023/08/19 06:56:33;;;;;;;;;;;;;;;26.87;56.61;101121.16;4824902;29;115689;-76
2023/08/19 06:59:08;;;;;;;;;;;;;;;26.90;56.84;101145.28;4831201;29;124170;-77
2023/08/19 07:04:49;;;;;;;;;;;;;;;27.04;56.86;101140.19;4829505;29;112349;-77
2023/08/19 07:07:21;;;;;;;;;;;;;;;27.09;56.67;101135.94;4830962;29;114211;-77
2023/08/19 07:09:48;;;;;;;;;;;;;;;27.13;56.88;101139.19;4838860;28;124040;-77
2023/08/19 07:12:16;;;;;;;;;;;;;;;27.20;56.73;101132.03;4841216;29;125007;-76
2023/08/19 07:14:44;;;;;;;;;;;;;;;27.25;56.66;101148.69;4834776;29;114701;-77
2023/08/19 07:17:14;;;;;;;;;;;;;;;27.30;56.71;101146.31;4818254;29;112935;-77
2023/08/19 07:19:41;;;;;;;;;;;;;;;27.36;56.71;101142.91;4835642;29;124301;-77
2023/08/19 07:22:09;;;;;;;;;;;;;;;27.43;56.86;101153.13;4838282;29;124774;-77
2023/08/19 07:24:36;;;;;;;;;;;;;;;27.49;56.61;101155.16;4837576;29;115083;-76
2023/08/19 07:27:04;;;;;;;;;;;;;;;27.54;56.40;101152.75;4832655;29;113993;-77
2023/08/19 07:29:31;;;;;;;;;;;;;;;27.60;56.62;101162.09;4829502;29;123615;-77
2023/08/19 07:31:58;;;;;;;;;;;;;;;27.66;56.51;101162.25;4835045;29;123155;-77
2023/08/19 07:34:25;;;;;;;;;;;;;;;27.73;56.53;101168.69;4834195;29;114484;-76
2023/08/19 07:36:52;;;;;;;;;;;;;;;27.84;56.58;101161.16;4846387;29;113344;-77
2023/08/19 07:39:19;;;;;;;;;;;;;;;27.95;56.46;101158.09;4824347;29;125021;-77
2023/08/19 07:41:46;;;;;;;;;;;;;;;28.05;56.63;101168.78;4835416;29;123845;-76
2023/08/19 07:44:13;;;;;;;;;;;;;;;28.14;56.69;101165.88;4829464;29;116124;-76
2023/08/19 07:46:40;;;;;;;;;;;;;;;28.25;56.70;101167.34;4828997;29;115152;-76
2023/08/19 07:49:07;;;;;;;;;;;;;;;28.40;56.61;101169.31;4822916;29;123627;-76
2023/08/19 07:51:34;;;;;;;;;;;;;;;28.56;56.69;101173.84;4835540;29;123423;-76
2023/08/19 07:54:01;;;;;;;;;;;;;;;28.73;56.57;101172.75;4827108;29;113666;-76
2023/08/19 07:56:28;;;;;;;;;;;;;;;28.93;56.62;101164.91;4830072;29;113749;-76
2023/08/19 07:58:55;;;;;;;;;;;;;;;29.15;56.81;101168.69;4829732;29;124363;-76
2023/08/19 08:01:22;;;;;;;;;;;;;;;29.40;56.76;101165.75;4834097;29;123797;-76
2023/08/19 08:03:49;;;;;;;;;;;;;;;29.66;56.95;101177.06;4830650;29;114080;-76
2023/08/19 08:06:16;;;;;;;;;;;;;;;29.87;56.48;101183.72;4830235;29;113785;-77
2023/08/19 08:08:43;;;;;;;;;;;;;;;30.00;56.32;101183.91;4834505;29;125184;-76
2023/08/19 08:11:10;;;;;;;;;;;;;;;30.14;56.31;101195.00;4831779;29;123911;-77
2023/08/19 08:13:37;;;;;;;;;;;;;;;30.24;55.97;101196.41;4833165;29;114150;-76
2023/08/19 08:16:04;;;;;;;;;;;;;;;30.36;55.84;101194.06;4826598;29;114392;-76
2023/08/19 08:18:31;;;;;;;;;;;;;;;30.53;55.96;101188.38;4832210;29;126279;-76
2023/08/19 08:20:58;;;;;;;;;;;;;;;30.70;56.07;101189.84;4833917;29;124052;-75
2023/08/19 08:23:25;;;;;;;;;;;;;;;30.85;55.78;101187.91;4833572;29;113596;-76
2023/08/19 08:25:54;;;;;;;;;;;;;;;30.97;55.92;101198.38;4830183;29;113954;-76
2023/08/19 08:28:21;;;;;;;;;;;;;;;31.03;55.54;101190.22;4831909;29;124021;-76
2023/08/19 08:30:48;;;;;;;;;;;;;;;31.07;55.55;101189.84;4824488;29;126090;-76
2023/08/19 08:33:15;;;;;;;;;;;;;;;31.08;55.45;101186.91;4846519;29;115376;-77
2023/08/19 08:35:42;;;;;;;;;;;;;;;31.08;55.11;101192.38;4826487;29;115103;-76
2023/08/19 08:38:09;;;;;;;;;;;;;;;31.09;55.04;101194.06;4831124;29;124060;-76
2023/08/19 08:40:36;;;;;;;;;;;;;;;31.08;54.92;101200.59;4841158;29;123827;-76
2023/08/19 08:43:03;;;;;;;;;;;;;;;31.06;55.11;101199.91;4831594;29;114677;-76
2023/08/19 08:45:31;;;;;;;;;;;;;;;31.05;55.25;101214.66;4849982;29;114299;-76
2023/08/19 08:48:02;;;;;;;;;;;;;;;31.04;54.91;101218.41;4850926;29;125375;-77
2023/08/19 08:50:29;;;;;;;;;;;;;;;31.00;54.74;101203.44;4829629;29;124059;-76
2023/08/19 08:52:57;;;;;;;;;;;;;;;30.98;54.71;101208.25;4836303;29;115809;-77
2023/08/19 08:55:24;;;;;;;;;;;;;;;30.95;54.90;101231.38;4829994;29;113913;-76
2023/08/19 08:57:51;;;;;;;;;;;;;;;30.94;54.56;101242.53;4829330;29;124162;-76
2023/08/19 09:00:18;;;;;;;;;;;;;;;30.89;54.74;101261.34;4829244;29;123823;-76
2023/08/19 09:02:45;;;;;;;;;;;;;;;30.83;54.49;101260.25;4834028;29;114463;-76
2023/08/19 09:05:13;;;;;;;;;;;;;;;30.74;54.83;101251.31;4831402;29;113171;-76
2023/08/19 09:07:41;;;;;;;;;;;;;;;30.69;54.86;101253.78;4832048;29;124414;-76
2023/08/19 09:10:14;;;;;;;;;;;;;;;30.67;54.81;101255.88;4828856;29;123812;-76
2023/08/19 09:12:47;;;;;;;;;;;;;;;30.64;54.69;101256.25;4832876;29;114974;-76
2023/08/19 09:15:15;;;;;;;;;;;;;;;30.61;54.86;101262.06;4834901;29;113823;-76
2023/08/19 09:17:43;;;;;;;;;;;;;;;30.57;54.71;101288.09;4823224;29;124357;-76
2023/08/19 09:20:11;;;;;;;;;;;;;;;30.50;54.60;101292.63;4822911;29;124209;-76
2023/08/19 09:22:42;;;;;;;;;;;;;;;30.42;54.68;101282.66;4818870;29;112721;-76
2023/08/19 09:25:15;;;;;;;;;;;;;;;30.37;54.70;101288.69;4825537;29;115233;-76
2023/08/19 09:27:44;;;;;;;;;;;;;;;30.32;54.63;101295.72;4821441;29;124346;-77
2023/08/19 09:30:16;;;;;;;;;;;;;;;30.26;54.99;101291.88;4825430;29;124419;-77
2023/08/19 09:32:45;;;;;;;;;;;;;;;30.21;54.90;101289.69;4830414;29;114656;-77
2023/08/19 09:35:12;;;;;;;;;;;;;;;30.18;54.76;101283.78;4840989;29;113515;-77
2023/08/19 09:37:40;;;;;;;;;;;;;;;30.16;54.99;101277.63;4846724;29;123978;-77
2023/08/19 09:40:08;;;;;;;;;;;;;;;30.15;54.89;101270.47;4831879;29;123083;-77
2023/08/19 09:42:35;;;;;;;;;;;;;;;30.14;54.93;101282.44;4818642;29;114631;-77
2023/08/19 09:45:04;;;;;;;;;;;;;;;30.12;54.92;101284.50;4823855;29;113700;-76
2023/08/19 09:47:44;;;;;;;;;;;;;;;30.12;55.03;101284.50;4835328;29;125115;-77
2023/08/19 09:50:11;;;;;;;;;;;;;;;30.12;55.03;101289.97;4832678;29;124236;-76
2023/08/19 09:52:38;;;;;;;;;;;;;;;30.15;55.26;101289.59;4845963;28;113953;-76
2023/08/19 09:55:05;;;;;;;;;;;;;;;30.17;55.10;101293.00;4830863;29;113974;-76
2023/08/19 09:57:33;;;;;;;;;;;;;;;30.20;55.04;101298.09;4826665;29;124524;-76
2023/08/19 10:00:00;;;;;;;;;;;;;;;30.25;55.29;101306.56;4837349;29;123966;-76
2023/08/19 10:02:32;;;;;;;;;;;;;;;30.28;55.36;101317.13;4826852;29;115312;-76
2023/08/19 10:05:00;;;;;;;;;;;;;;;30.32;55.21;101323.94;4828337;29;113687;-76
2023/08/19 10:07:31;;;;;;;;;;;;;;;30.36;55.21;101324.41;4844037;29;123117;-76
2023/08/19 10:10:01;;;;;;;;;;;;;;;30.38;55.12;101323.19;4834466;29;123703;-77
2023/08/19 10:12:30;;;;;;;;;;;;;;;30.40;55.18;101328.47;4820872;29;116648;-77
2023/08/19 10:14:58;;;;;;;;;;;;;;;30.45;55.22;101329.59;4827984;29;114741;-77
2023/08/19 10:17:25;;;;;;;;;;;;;;;30.50;55.29;101339.09;4821505;29;123654;-76
2023/08/19 10:19:56;;;;;;;;;;;;;;;30.56;55.16;101335.63;4826324;29;123974;-76
2023/08/19 10:22:23;;;;;;;;;;;;;;;30.62;55.11;101343.06;4830829;29;114330;-76
2023/08/19 10:24:51;;;;;;;;;;;;;;;30.71;55.17;101355.63;4829687;29;114472;-76
2023/08/19 10:27:18;;;;;;;;;;;;;;;30.81;55.05;101353.44;4833705;29;124814;-77
2023/08/19 10:29:48;;;;;;;;;;;;;;;30.90;55.35;101353.34;4830935;29;122327;-77
2023/08/19 10:32:25;;;;;;;;;;;;;;;30.98;54.96;101356.81;4843286;29;114107;-76
2023/08/19 10:34:59;;;;;;;;;;;;;;;31.08;55.29;101361.16;4824762;29;112753;-77
2023/08/19 10:37:28;;;;;;;;;;;;;;;31.16;54.94;101369.28;4835499;29;123826;-76
2023/08/19 10:40:08;;;;;;;;;;;;;;;31.20;54.87;101360.47;4832940;29;123968;-77
2023/08/19 10:42:35;;;;;;;;;;;;;;;31.26;54.74;101360.75;4832847;29;115124;-76
2023/08/19 10:45:03;;;;;;;;;;;;;;;31.28;54.75;101366.88;4827871;29;112910;-76
2023/08/19 10:47:30;;;;;;;;;;;;;;;31.31;55.08;101371.97;4834405;29;126097;-76
2023/08/19 10:50:01;;;;;;;;;;;;;;;31.37;55.05;101376.66;4826955;29;125395;-77
2023/08/19 10:52:28;;;;;;;;;;;;;;;31.42;55.07;101369.56;4833957;29;114186;-76
2023/08/19 10:54:57;;;;;;;;;;;;;;;31.48;54.70;101378.94;4830438;29;113867;-77
2023/08/19 10:57:25;;;;;;;;;;;;;;;31.50;54.48;101376.84;4848902;29;123829;-77
2023/08/19 10:59:59;;;;;;;;;;;;;;;31.52;54.75;101374.75;4828581;29;125009;-77
2023/08/19 11:02:27;;;;;;;;;;;;;;;31.53;54.69;101378.31;4824628;29;115131;-77
2023/08/19 11:04:54;;;;;;;;;;;;;;;31.52;54.78;101396.66;4833107;29;114464;-77
2023/08/19 11:07:21;;;;;;;;;;;;;;;31.53;54.45;101409.31;4834982;29;124141;-77
2023/08/19 11:09:49;;;;;;;;;;;;;;;31.53;54.17;101409.31;4827358;29;124944;-76
2023/08/19 11:12:18;;;;;;;;;;;;;;;31.50;54.31;101409.69;4841692;29;114375;-77
2023/08/19 11:14:49;;;;;;;;;;;;;;;31.47;54.30;101412.81;4833524;29;114154;-77
2023/08/19 11:17:16;;;;;;;;;;;;;;;31.46;54.48;101419.31;4833232;29;123949;-77
2023/08/19 11:19:43;;;;;;;;;;;;;;;31.46;54.35;101430.25;4831598;29;123829;-77
2023/08/19 11:22:11;;;;;;;;;;;;;;;31.43;54.39;101436.09;4837288;29;114600;-76
2023/08/19 11:24:38;;;;;;;;;;;;;;;31.35;54.37;101438.97;4831372;29;112742;-77
2023/08/19 11:27:05;;;;;;;;;;;;;;;31.27;54.37;101442.66;4830544;29;124301;-76
2023/08/19 11:29:32;;;;;;;;;;;;;;;31.18;54.06;101452.03;4830071;29;123234;-77
2023/08/19 11:32:00;;;;;;;;;;;;;;;31.05;54.30;101455.44;4829045;29;114439;-77
2023/08/19 11:34:28;;;;;;;;;;;;;;;30.94;54.36;101469.59;4845772;29;112763;-78
2023/08/19 11:36:55;;;;;;;;;;;;;;;30.84;54.18;101470.66;4832746;29;124127;-78
2023/08/19 11:39:22;;;;;;;;;;;;;;;30.76;54.27;101478.97;4836629;29;123333;-77
2023/08/19 11:41:50;;;;;;;;;;;;;;;30.69;54.59;101493.59;4831822;29;115222;-78
2023/08/19 11:44:19;;;;;;;;;;;;;;;30.61;54.36;101494.50;4828711;29;114088;-76
2023/08/19 11:46:46;;;;;;;;;;;;;;;30.53;54.47;101521.91;4832991;29;124916;-77
2023/08/19 11:49:13;;;;;;;;;;;;;;;30.43;54.46;101528.47;4835277;29;124139;-77
2023/08/19 11:51:40;;;;;;;;;;;;;;;30.35;54.53;101544.97;4818346;29;115760;-77
2023/08/19 11:54:08;;;;;;;;;;;;;;;30.27;54.42;101555.91;4828255;29;113721;-77
2023/08/19 11:56:48;;;;;;;;;;;;;;;30.16;54.56;101559.06;4832739;29;124214;-77
2023/08/19 11:59:16;;;;;;;;;;;;;;;30.05;54.54;101555.72;4843904;29;123780;-77
2023/08/19 12:01:46;;;;;;;;;;;;;;;29.98;54.53;101545.69;4835195;29;113288;-77
2023/08/19 12:04:17;;;;;;;;;;;;;;;29.89;54.51;101555.81;4849229;29;112618;-77
2023/08/19 12:06:46;;;;;;;;;;;;;;;29.81;54.59;101566.78;4843397;29;124314;-77
2023/08/19 12:09:13;;;;;;;;;;;;;;;29.71;54.68;101577.91;4834911;29;123018;-77
2023/08/19 12:11:40;;;;;;;;;;;;;;;29.62;54.57;101582.53;4835943;29;114263;-78
2023/08/19 12:14:08;;;;;;;;;;;;;;;29.55;54.74;101578.78;4829647;29;113621;-77
2023/08/19 12:16:34;;;;;;;;;;;;;;;29.50;54.79;101570.31;4832911;29;125080;-76
2023/08/19 12:19:01;;;;;;;;;;;;;;;29.45;54.84;101569.97;4848071;28;123855;-77
2023/08/19 12:21:28;;;;;;;;;;;;;;;29.40;54.74;101580.56;4833487;29;114327;-77
2023/08/19 12:23:55;;;;;;;;;;;;;;;29.37;54.96;101591.84;4849930;29;113592;-77
2023/08/19 12:26:22;;;;;;;;;;;;;;;29.31;54.78;101583.31;4847924;29;124416;-77
2023/08/19 12:28:49;;;;;;;;;;;;;;;29.26;54.85;101602.09;4830049;29;124635;-76
2023/08/19 12:31:16;;;;;;;;;;;;;;;29.22;54.81;101592.56;4835913;29;114296;-76
2023/08/19 12:33:43;;;;;;;;;;;;;;;29.19;54.85;101611.97;4835194;29;113889;-77
2023/08/19 12:36:10;;;;;;;;;;;;;;;29.19;54.95;101617.44;4833175;29;124435;-77